createdAt,value
2019-01-19T00:02:08.645Z,32.2
2019-01-19T00:05:14.657Z,32.2
2019-01-19T00:08:20.567Z,32.3
2019-01-19T00:11:26.524Z,32.4
2019-01-19T00:14:32.484Z,32.4
2019-01-19T00:17:38.449Z,32.4
2019-01-19T00:20:44.502Z,32.4
2019-01-19T00:23:50.374Z,32.5
2019-01-19T00:26:56.473Z,32.5
2019-01-19T00:30:02.485Z,32.5
2019-01-19T00:33:08.355Z,32.5
2019-01-19T00:36:14.402Z,32.5
2019-01-19T00:39:20.414Z,32.6
2019-01-19T00:42:26.329Z,32.6
2019-01-19T00:45:32.289Z,32.6
2019-01-19T00:48:38.217Z,32.6
2019-01-19T00:51:44.217Z,32.7
2019-01-19T00:54:50.275Z,32.7
2019-01-19T00:57:56.327Z,32.7
2019-01-19T01:01:02.295Z,32.7
2019-01-19T01:04:08.263Z,32.7
2019-01-19T01:07:14.325Z,32.8
2019-01-19T01:10:20.286Z,32.8
2019-01-19T01:13:26.143Z,32.8
2019-01-19T01:16:32.205Z,32.8
2019-01-19T01:19:38.229Z,32.8
2019-01-19T01:22:44.216Z,32.8
2019-01-19T01:25:50.227Z,32.9
2019-01-19T01:28:56.128Z,32.9
2019-01-19T01:32:02.086Z,33
2019-01-19T01:35:08.056Z,33
2019-01-19T01:38:13.985Z,33.1
2019-01-19T01:41:20.075Z,33.1
2019-01-19T01:44:26.042Z,33.1
2019-01-19T01:47:32.104Z,33.1
2019-01-19T01:50:38.165Z,33.1
2019-01-19T01:53:44.066Z,33.1
2019-01-19T01:56:49.987Z,33.1
2019-01-19T01:59:56.030Z,33.2
2019-01-19T02:03:02.178Z,33.1
2019-01-19T02:06:08.168Z,33.2
2019-01-19T02:09:14.126Z,33.2
2019-01-19T02:12:20.087Z,33.2
2019-01-19T02:15:26.045Z,33.3
2019-01-19T02:18:32.010Z,33.3
2019-01-19T02:21:37.863Z,33.3
2019-01-19T02:24:43.921Z,33.3
2019-01-19T02:27:49.781Z,33.3
2019-01-19T02:30:55.731Z,33.3
2019-01-19T02:34:01.692Z,33.4
2019-01-19T02:37:07.561Z,33.4
2019-01-19T02:40:13.501Z,33.5
2019-01-19T02:43:19.394Z,33.4
2019-01-19T02:46:25.428Z,33.5
2019-01-19T02:49:31.486Z,33.5
2019-01-19T02:52:37.444Z,33.5
2019-01-19T02:55:43.322Z,33.5
2019-01-19T02:58:49.363Z,33.6
2019-01-19T03:01:55.233Z,33.6
2019-01-19T03:05:01.181Z,33.6
2019-01-19T03:08:07.057Z,33.7
2019-01-19T03:11:12.996Z,33.6
2019-01-19T03:14:19.062Z,33.7
2019-01-19T03:17:25.020Z,33.6
2019-01-19T03:20:30.979Z,33.7
2019-01-19T03:23:36.913Z,33.7
2019-01-19T03:26:42.897Z,33.7
2019-01-19T03:29:48.854Z,33.7
2019-01-19T03:32:54.838Z,33.7
2019-01-19T03:36:05.281Z,33.8
2019-01-19T03:39:11.152Z,33.8
2019-01-19T03:42:17.203Z,33.8
2019-01-19T03:45:23.165Z,33.8
2019-01-19T03:48:29.137Z,33.8
2019-01-19T03:51:35.075Z,33.9
2019-01-19T03:54:41.043Z,33.8
2019-01-19T03:57:46.998Z,33.9
2019-01-19T04:00:53.162Z,33.8
2019-01-19T04:03:59.119Z,33.9
2019-01-19T04:07:04.992Z,33.9
2019-01-19T04:10:11.021Z,33.9
2019-01-19T04:13:16.998Z,34
2019-01-19T04:16:22.898Z,34
2019-01-19T04:19:28.917Z,34
2019-01-19T04:22:34.798Z,34
2019-01-19T04:25:40.748Z,34
2019-01-19T04:28:46.796Z,34
2019-01-19T04:31:52.754Z,34
2019-01-19T04:34:58.726Z,34
2019-01-19T04:38:04.693Z,34
2019-01-19T04:41:10.743Z,34.1
2019-01-19T04:44:16.630Z,34
2019-01-19T04:47:22.554Z,34
2019-01-19T04:50:28.519Z,34
2019-01-19T04:53:34.582Z,34
2019-01-19T04:56:40.461Z,34
2019-01-19T04:59:46.499Z,34
2019-01-19T05:02:52.569Z,34
2019-01-19T05:05:58.531Z,34.1
2019-01-19T05:09:14.032Z,34.1
2019-01-19T05:12:19.962Z,34.1
2019-01-19T05:15:25.847Z,34.1
2019-01-19T05:18:31.777Z,34.1
2019-01-19T05:21:37.740Z,34.1
2019-01-19T05:24:43.698Z,34.1
2019-01-19T05:27:49.581Z,34.1
2019-01-19T05:30:55.521Z,34.1
2019-01-19T05:34:02.913Z,34.1
2019-01-19T05:37:08.774Z,34.1
2019-01-19T05:40:14.827Z,34.1
2019-01-19T05:43:20.717Z,34.1
2019-01-19T05:46:26.647Z,34.2
2019-01-19T05:49:32.603Z,34.2
2019-01-19T05:52:38.766Z,34.2
2019-01-19T05:55:44.728Z,34.2
2019-01-19T05:58:50.690Z,34.2
2019-01-19T06:01:56.749Z,34.2
2019-01-19T06:05:02.614Z,34.2
2019-01-19T06:08:08.567Z,34.2
2019-01-19T06:11:14.530Z,34.2
2019-01-19T06:14:20.435Z,34.2
2019-01-19T06:17:26.445Z,34.2
2019-01-19T06:20:32.403Z,34.2
2019-01-19T06:23:38.369Z,34.2
2019-01-19T06:26:44.327Z,34.2
2019-01-19T06:29:50.192Z,34.2
2019-01-19T06:32:56.248Z,34.3
2019-01-19T06:36:02.203Z,34.2
2019-01-19T06:39:08.164Z,34.3
2019-01-19T06:42:14.225Z,34.2
2019-01-19T06:45:20.184Z,34.3
2019-01-19T06:48:26.143Z,34.3
2019-01-19T06:51:32.107Z,34.2
2019-01-19T06:54:38.056Z,34.3
2019-01-19T06:57:44.016Z,34.3
2019-01-19T07:00:50.077Z,34.3
2019-01-19T07:03:55.949Z,34.3
2019-01-19T07:07:03.533Z,34.3
2019-01-19T07:10:12.025Z,34.4
2019-01-19T07:13:18.010Z,34.4
2019-01-19T07:16:24.083Z,34.4
2019-01-19T07:19:30.038Z,34.4
2019-01-19T07:22:36.003Z,34.3
2019-01-19T07:25:43.359Z,34.3
2019-01-19T07:28:50.998Z,34.4
2019-01-19T07:31:56.856Z,34.4
2019-01-19T07:35:02.806Z,34.4
2019-01-19T07:38:08.775Z,34.4
2019-01-19T07:41:14.704Z,34.4
2019-01-19T07:44:23.768Z,34.5
2019-01-19T07:47:29.845Z,34.5
2019-01-19T07:50:37.106Z,34.5
2019-01-19T07:53:45.726Z,34.5
2019-01-19T07:56:54.577Z,34.5
2019-01-19T08:00:00.617Z,34.5
2019-01-19T08:03:06.488Z,34.6
2019-01-19T08:06:12.533Z,34.6
2019-01-19T08:09:18.412Z,34.6
2019-01-19T08:12:24.349Z,34.6
2019-01-19T08:15:30.411Z,34.6
2019-01-19T08:18:36.374Z,34.6
2019-01-19T08:21:42.330Z,34.7
2019-01-19T08:24:48.215Z,34.7
2019-01-19T08:27:54.153Z,34.7
2019-01-19T08:31:00.125Z,34.7
2019-01-19T08:34:06.194Z,34.7
2019-01-19T08:37:12.107Z,34.7
2019-01-19T08:40:21.261Z,34.8
2019-01-19T08:43:27.223Z,34.7
2019-01-19T08:46:33.224Z,34.8
2019-01-19T08:49:39.349Z,34.8
2019-01-19T08:52:45.306Z,34.8
2019-01-19T08:55:51.266Z,34.8
2019-01-19T08:58:57.231Z,34.8
2019-01-19T09:02:03.296Z,34.8
2019-01-19T09:05:10.805Z,34.9
2019-01-19T09:08:16.666Z,34.9
2019-01-19T09:11:22.706Z,34.9
2019-01-19T09:14:28.659Z,34.9
2019-01-19T09:17:34.647Z,34.9
2019-01-19T09:20:40.502Z,34.9
2019-01-19T09:23:46.401Z,34.9
2019-01-19T09:26:52.399Z,34.9
2019-01-19T09:30:01.001Z,35
2019-01-19T09:33:06.827Z,34.9
2019-01-19T09:36:12.838Z,34.9
2019-01-19T09:39:18.792Z,35
2019-01-19T09:42:24.665Z,34.9
2019-01-19T09:45:30.537Z,35
2019-01-19T09:48:38.207Z,34.9
2019-01-19T09:51:44.170Z,35.1
2019-01-19T09:54:50.133Z,35
2019-01-19T09:57:56.193Z,35.1
2019-01-19T10:01:02.152Z,35
2019-01-19T10:04:08.111Z,35
2019-01-19T10:07:13.979Z,35.1
2019-01-19T10:10:19.928Z,35.1
2019-01-19T10:13:25.795Z,35
2019-01-19T10:16:31.741Z,35
2019-01-19T10:19:37.700Z,35.1
2019-01-19T10:22:43.660Z,35.1
2019-01-19T10:25:49.536Z,35.1
2019-01-19T10:28:55.476Z,35.1
2019-01-19T10:32:01.444Z,35.1
2019-01-19T10:35:10.100Z,35
2019-01-19T10:38:16.127Z,35.1
2019-01-19T10:41:22.084Z,35.1
2019-01-19T10:44:28.046Z,35.1
2019-01-19T10:47:34.000Z,35.1
2019-01-19T10:50:39.889Z,35.1
2019-01-19T10:53:45.917Z,35.1
2019-01-19T10:56:51.993Z,35
2019-01-19T10:59:57.856Z,35
2019-01-19T11:03:03.901Z,35.1
2019-01-19T11:06:09.778Z,35.1
2019-01-19T11:09:15.720Z,35.1
2019-01-19T11:12:21.720Z,35.1
2019-01-19T11:15:27.843Z,35.1
2019-01-19T11:18:33.878Z,35.1
2019-01-19T11:21:39.745Z,35.1
2019-01-19T11:24:45.927Z,35
2019-01-19T11:27:51.899Z,35
2019-01-19T11:30:57.850Z,35.1
2019-01-19T11:34:03.908Z,35.1
2019-01-19T11:37:09.980Z,35.1
2019-01-19T11:40:15.863Z,35
2019-01-19T11:43:21.985Z,35.1
2019-01-19T11:46:27.859Z,35
2019-01-19T11:49:33.905Z,35.1
2019-01-19T11:52:39.870Z,35
2019-01-19T11:55:46.653Z,35.1
2019-01-19T11:58:52.732Z,35.1
2019-01-19T12:01:58.675Z,35.1
2019-01-19T12:05:04.637Z,35.1
2019-01-19T12:08:10.591Z,35.1
2019-01-19T12:11:24.329Z,35.1
2019-01-19T12:14:30.352Z,35.2
2019-01-19T12:17:36.459Z,35.1
2019-01-19T12:20:42.329Z,35.1
2019-01-19T12:23:48.268Z,35.1
2019-01-19T12:26:54.145Z,35.1
2019-01-19T12:30:00.260Z,35.1
2019-01-19T12:33:09.197Z,35.1
2019-01-19T12:36:15.178Z,35.2
2019-01-19T12:39:21.247Z,35.2
2019-01-19T12:42:27.188Z,35.2
2019-01-19T12:45:33.166Z,35.1
2019-01-19T12:48:39.096Z,35.2
2019-01-19T12:51:45.182Z,35.2
2019-01-19T12:54:51.052Z,35.2
2019-01-19T12:57:56.955Z,35.2
2019-01-19T13:01:02.932Z,35.3
2019-01-19T13:04:08.914Z,35.2
2019-01-19T13:07:14.804Z,35.2
2019-01-19T13:10:21.184Z,35.2
2019-01-19T13:13:27.206Z,35.3
2019-01-19T13:16:33.221Z,35.2
2019-01-19T13:19:39.206Z,35.2
2019-01-19T13:22:46.658Z,35.3
2019-01-19T13:25:52.770Z,35.3
2019-01-19T13:28:58.748Z,35.3
2019-01-19T13:32:05.728Z,35.3
2019-01-19T13:35:11.807Z,35.3
2019-01-19T13:38:17.858Z,35.3
2019-01-19T13:41:23.819Z,35.4
2019-01-19T13:44:29.685Z,35.3
2019-01-19T13:47:35.738Z,35.4
2019-01-19T13:50:41.663Z,35.3
2019-01-19T13:53:47.654Z,35.4
2019-01-19T13:56:53.618Z,35.4
2019-01-19T13:59:59.577Z,35.4
2019-01-19T14:03:05.628Z,35.4
2019-01-19T14:06:11.505Z,35.4
2019-01-19T14:09:17.452Z,35.4
2019-01-19T14:12:23.414Z,35.5
2019-01-19T14:15:29.990Z,35.4
2019-01-19T14:18:35.951Z,35.5
2019-01-19T14:21:41.909Z,35.4
2019-01-19T14:24:47.965Z,35.5
2019-01-19T14:27:53.929Z,35.4
2019-01-19T14:30:59.790Z,35.5
2019-01-19T14:34:05.740Z,35.5
2019-01-19T14:37:11.696Z,35.5
2019-01-19T14:40:17.657Z,35.4
2019-01-19T14:43:23.525Z,35.6
2019-01-19T14:46:32.442Z,35.5
2019-01-19T14:49:38.404Z,35.6
2019-01-19T14:52:44.272Z,35.5
2019-01-19T14:55:50.226Z,35.6
2019-01-19T14:58:58.845Z,35.6
2019-01-19T15:02:04.803Z,35.6
2019-01-19T15:05:10.765Z,35.6
2019-01-19T15:08:16.724Z,35.5
2019-01-19T15:11:22.684Z,35.6
2019-01-19T15:14:28.748Z,35.5
2019-01-19T15:17:34.713Z,35.6
2019-01-19T15:20:40.781Z,35.6
2019-01-19T15:23:46.844Z,35.6
2019-01-19T15:26:52.769Z,35.6
2019-01-19T15:29:58.754Z,35.7
2019-01-19T15:33:04.823Z,35.7
2019-01-19T15:36:10.876Z,35.7
2019-01-19T15:39:16.827Z,35.7
2019-01-19T15:42:22.786Z,35.7
2019-01-19T15:45:28.848Z,35.7
2019-01-19T15:48:34.890Z,35.8
2019-01-19T15:51:40.757Z,35.8
2019-01-19T15:54:46.642Z,35.8
2019-01-19T15:57:52.513Z,35.8
2019-01-19T16:00:58.553Z,35.8
2019-01-19T16:04:04.482Z,35.8
2019-01-19T16:07:10.473Z,35.9
2019-01-19T16:10:16.432Z,35.8
2019-01-19T16:13:25.475Z,35.9
2019-01-19T16:16:33.463Z,35.9
2019-01-19T16:19:39.419Z,36
2019-01-19T16:22:45.380Z,35.9
2019-01-19T16:25:54.105Z,35.9
2019-01-19T16:28:59.983Z,35.9
2019-01-19T16:32:08.895Z,36
2019-01-19T16:35:14.760Z,36
2019-01-19T16:38:20.717Z,36.1
2019-01-19T16:41:26.673Z,36
2019-01-19T16:44:32.669Z,36
2019-01-19T16:47:38.723Z,36
2019-01-19T16:50:44.754Z,36
2019-01-19T16:53:51.430Z,36
2019-01-19T16:56:57.297Z,36
2019-01-19T17:00:03.249Z,35.9
2019-01-19T17:03:09.113Z,35.9
2019-01-19T17:06:16.907Z,35.9
2019-01-19T17:09:22.931Z,36
2019-01-19T17:12:35.766Z,35.9
2019-01-19T17:15:41.749Z,35.9
2019-01-19T17:18:47.809Z,35.8
2019-01-19T17:21:53.679Z,35.8
2019-01-19T17:24:59.735Z,35.9
2019-01-19T17:28:05.892Z,35.8
2019-01-19T17:31:11.764Z,35.8
2019-01-19T17:34:20.887Z,35.9
2019-01-19T17:37:26.795Z,35.8
2019-01-19T17:40:32.707Z,35.8
2019-01-19T17:43:38.703Z,35.7
2019-01-19T17:46:44.629Z,35.7
2019-01-19T17:49:50.520Z,35.7
2019-01-19T17:52:56.391Z,35.7
2019-01-19T17:56:02.399Z,35.7
2019-01-19T17:59:08.267Z,35.7
2019-01-19T18:02:14.318Z,35.7
2019-01-19T18:05:20.276Z,35.7
2019-01-19T18:08:26.235Z,35.7
2019-01-19T18:11:32.197Z,35.7
2019-01-19T18:14:39.804Z,35.7
2019-01-19T18:17:45.763Z,35.7
2019-01-19T18:20:52.955Z,35.7
2019-01-19T18:23:58.878Z,35.7
2019-01-19T18:27:04.874Z,35.7
2019-01-19T18:30:10.818Z,35.7
2019-01-19T18:33:16.699Z,35.7
2019-01-19T18:36:22.740Z,35.7
2019-01-19T18:39:28.702Z,35.7
2019-01-19T18:42:34.760Z,35.7
2019-01-19T18:45:40.725Z,35.8
2019-01-19T18:48:46.889Z,35.7
2019-01-19T18:51:52.951Z,35.7
2019-01-19T18:54:59.008Z,35.7
2019-01-19T18:58:04.972Z,35.7
2019-01-19T19:01:10.906Z,35.7
2019-01-19T19:04:16.974Z,35.7
2019-01-19T19:07:23.164Z,35.7
2019-01-19T19:10:29.024Z,35.8
2019-01-19T19:13:34.969Z,35.8
2019-01-19T19:16:41.030Z,35.8
2019-01-19T19:19:46.997Z,35.8
2019-01-19T19:22:52.872Z,35.9
2019-01-19T19:25:58.920Z,35.8
2019-01-19T19:29:04.855Z,36
2019-01-19T19:32:10.840Z,35.9
2019-01-19T19:35:16.801Z,35.9
2019-01-19T19:38:22.669Z,35.9
2019-01-19T19:41:30.353Z,35.9
2019-01-19T19:44:36.215Z,35.9
2019-01-19T19:47:42.164Z,36
2019-01-19T19:50:48.034Z,36
2019-01-19T19:53:53.976Z,36
2019-01-19T19:56:59.920Z,36
2019-01-19T20:00:05.908Z,36
2019-01-19T20:03:11.970Z,36
2019-01-19T20:06:17.837Z,36
2019-01-19T20:09:23.784Z,36.1
2019-01-19T20:12:29.741Z,36.1
2019-01-19T20:15:35.799Z,36.1
2019-01-19T20:18:41.675Z,36.1
2019-01-19T20:21:47.669Z,36.1
2019-01-19T20:24:53.692Z,36.1
2019-01-19T20:27:59.751Z,36.1
2019-01-19T20:31:05.924Z,36.2
2019-01-19T20:34:11.887Z,36.2
2019-01-19T20:37:17.838Z,36.2
2019-01-19T20:40:25.222Z,36.2
2019-01-19T20:43:31.094Z,36.2
2019-01-19T20:46:37.143Z,36.2
2019-01-19T20:49:43.095Z,36.2
2019-01-19T20:52:49.079Z,36.3
2019-01-19T20:55:54.999Z,36.2
2019-01-19T20:59:00.973Z,36.3
2019-01-19T21:02:06.930Z,36.3
2019-01-19T21:05:12.890Z,36.3
2019-01-19T21:08:18.951Z,36.4
2019-01-19T21:11:25.013Z,36.4
2019-01-19T21:14:30.974Z,36.4
2019-01-19T21:17:36.935Z,36.4
2019-01-19T21:20:42.895Z,36.4
2019-01-19T21:23:51.619Z,36.5
2019-01-19T21:26:57.576Z,36.5
2019-01-19T21:30:03.546Z,36.5
2019-01-19T21:33:09.557Z,36.5
2019-01-19T21:36:17.979Z,36.5
2019-01-19T21:39:23.996Z,36.5
2019-01-19T21:42:29.989Z,36.5
2019-01-19T21:45:36.000Z,36.5
2019-01-19T21:48:42.058Z,36.6
2019-01-19T21:51:47.928Z,36.6
2019-01-19T21:54:54.001Z,36.5
2019-01-19T21:58:00.041Z,36.6
2019-01-19T22:01:06.008Z,36.6
2019-01-19T22:04:11.963Z,36.6
2019-01-19T22:07:17.917Z,36.6
2019-01-19T22:10:23.789Z,36.6
2019-01-19T22:13:29.847Z,36.6
2019-01-19T22:16:38.270Z,36.6
2019-01-19T22:19:44.333Z,36.6
2019-01-19T22:22:50.237Z,36.7
2019-01-19T22:25:56.248Z,36.7
2019-01-19T22:29:02.310Z,36.6
2019-01-19T22:32:08.179Z,36.7
2019-01-19T22:35:16.885Z,36.6
2019-01-19T22:38:22.865Z,36.7
2019-01-19T22:41:28.906Z,36.7
2019-01-19T22:44:34.775Z,36.7
2019-01-19T22:47:40.825Z,36.6
2019-01-19T22:50:46.778Z,36.6
2019-01-19T22:53:52.650Z,36.7
2019-01-19T22:56:58.698Z,36.8
2019-01-19T23:00:04.567Z,36.7
2019-01-19T23:03:10.528Z,36.7
2019-01-19T23:06:16.586Z,36.8
2019-01-19T23:09:22.541Z,36.8
2019-01-19T23:12:28.705Z,36.8
2019-01-19T23:15:34.665Z,36.8
2019-01-19T23:18:40.597Z,36.8
2019-01-19T23:21:46.583Z,36.8
2019-01-19T23:24:54.391Z,36.9
2019-01-19T23:28:00.349Z,36.9
2019-01-19T23:31:06.216Z,36.9
2019-01-19T23:34:12.246Z,36.9
2019-01-19T23:37:18.428Z,36.9
2019-01-19T23:40:24.301Z,36.9
2019-01-19T23:43:30.249Z,36.9
2019-01-19T23:46:36.211Z,36.9
2019-01-19T23:49:42.141Z,37
2019-01-19T23:52:48.123Z,37
2019-01-19T23:55:54.187Z,37
2019-01-19T23:59:03.320Z,37
